createdAt,value
2017-12-17T00:03:22.761Z,2.00
2017-12-17T00:08:23.615Z,2.06
2017-12-17T00:13:25.339Z,2.04
2017-12-17T00:18:26.174Z,2.07
2017-12-17T00:23:26.966Z,1.93
2017-12-17T00:28:31.289Z,1.95
2017-12-17T00:33:32.112Z,1.92
2017-12-17T00:38:33.006Z,1.89
2017-12-17T00:43:33.833Z,1.88
2017-12-17T00:48:41.759Z,1.87
2017-12-17T00:53:42.569Z,1.74
2017-12-17T00:58:44.429Z,1.77
2017-12-17T01:03:45.290Z,1.75
2017-12-17T01:08:46.102Z,1.80
2017-12-17T01:13:46.944Z,1.94
2017-12-17T01:18:51.015Z,1.92
2017-12-17T01:23:51.807Z,1.82
2017-12-17T01:28:52.637Z,1.95
2017-12-17T01:33:56.726Z,2.00
2017-12-17T01:38:57.733Z,2.04
2017-12-17T01:43:58.534Z,2.03
2017-12-17T01:48:59.394Z,1.97
2017-12-17T01:54:00.192Z,2.00
2017-12-17T01:59:00.995Z,1.96
2017-12-17T02:04:01.796Z,1.90
2017-12-17T02:09:02.659Z,1.89
2017-12-17T02:14:03.455Z,1.86
2017-12-17T02:19:04.274Z,1.76
2017-12-17T02:24:05.151Z,1.79
2017-12-17T02:29:05.959Z,1.74
2017-12-17T02:34:10.680Z,1.75
2017-12-17T02:39:11.510Z,1.82
2017-12-17T02:44:12.330Z,1.84
2017-12-17T02:49:13.155Z,1.82
2017-12-17T02:54:16.838Z,1.86
2017-12-17T02:59:17.640Z,1.81
2017-12-17T03:04:32.033Z,1.85
2017-12-17T03:09:32.844Z,1.86
2017-12-17T03:14:33.690Z,1.74
2017-12-17T03:19:34.492Z,1.78
2017-12-17T03:24:35.314Z,1.82
2017-12-17T03:29:37.446Z,1.73
2017-12-17T03:34:38.264Z,1.76
2017-12-17T03:39:47.982Z,1.73
2017-12-17T03:44:48.815Z,1.68
2017-12-17T03:49:49.631Z,1.71
2017-12-17T03:54:50.446Z,1.87
2017-12-17T03:59:57.275Z,1.86
2017-12-17T04:04:58.131Z,1.82
2017-12-17T04:09:58.950Z,1.88
2017-12-17T04:14:59.828Z,1.91
2017-12-17T04:20:20.692Z,1.88
2017-12-17T04:25:21.499Z,1.94
2017-12-17T04:30:22.351Z,1.92
2017-12-17T04:35:28.295Z,1.88
2017-12-17T04:40:29.110Z,1.90
2017-12-17T04:45:29.939Z,1.92
2017-12-17T04:50:30.754Z,1.98
2017-12-17T04:55:31.582Z,1.95
2017-12-17T05:00:42.906Z,1.97
2017-12-17T05:05:43.702Z,1.89
2017-12-17T05:10:44.528Z,1.94
2017-12-17T05:15:52.530Z,2.05
2017-12-17T05:20:53.348Z,2.12
2017-12-17T05:25:54.170Z,2.04
2017-12-17T05:30:55.032Z,2.13
2017-12-17T05:35:55.862Z,2.10
2017-12-17T05:40:56.657Z,2.08
2017-12-17T05:46:04.606Z,2.11
2017-12-17T05:51:05.485Z,2.08
2017-12-17T05:56:06.277Z,2.06
2017-12-17T06:01:07.208Z,2.00
2017-12-17T06:06:08.061Z,1.93
2017-12-17T06:11:12.608Z,2.04
2017-12-17T06:16:13.429Z,2.11
2017-12-17T06:21:14.250Z,2.06
2017-12-17T06:26:15.126Z,2.20
2017-12-17T06:31:16.022Z,2.17
2017-12-17T06:36:16.903Z,2.19
2017-12-17T06:41:17.825Z,2.14
2017-12-17T06:46:27.178Z,2.16
2017-12-17T06:51:28.035Z,2.17
2017-12-17T06:56:28.914Z,2.05
2017-12-17T07:01:29.752Z,2.04
2017-12-17T07:06:30.659Z,2.11
2017-12-17T07:11:31.526Z,2.12
2017-12-17T07:16:35.788Z,2.12
2017-12-17T07:21:36.658Z,2.20
2017-12-17T07:26:37.549Z,2.19
2017-12-17T07:31:38.412Z,2.21
2017-12-17T07:36:39.278Z,2.19
2017-12-17T07:41:43.602Z,2.20
2017-12-17T07:46:44.504Z,2.20
2017-12-17T07:51:45.350Z,2.23
2017-12-17T07:56:46.451Z,2.27
2017-12-17T08:01:50.521Z,2.27
2017-12-17T08:06:51.375Z,2.30
2017-12-17T08:11:52.244Z,2.44
2017-12-17T08:16:53.077Z,2.44
2017-12-17T08:21:53.937Z,2.54
2017-12-17T08:26:54.801Z,2.49
2017-12-17T08:31:55.758Z,2.68
2017-12-17T08:36:56.742Z,2.82
2017-12-17T08:42:05.285Z,2.88
2017-12-17T08:47:06.117Z,2.79
2017-12-17T08:52:10.421Z,2.88
2017-12-17T08:57:18.025Z,2.84
2017-12-17T09:02:18.893Z,3.03
2017-12-17T09:07:26.554Z,3.04
2017-12-17T09:12:27.381Z,3.16
2017-12-17T09:17:34.421Z,3.12
2017-12-17T09:22:35.278Z,3.18
2017-12-17T09:27:36.071Z,3.09
2017-12-17T09:38:15.489Z,2.95
2017-12-17T09:43:33.453Z,2.29
2017-12-17T09:48:40.521Z,2.23
2017-12-17T09:53:47.202Z,2.56
2017-12-17T09:58:51.987Z,2.80
2017-12-17T10:03:56.806Z,3.03
2017-12-17T10:08:57.629Z,3.20
2017-12-17T10:13:58.555Z,3.35
2017-12-17T10:19:05.642Z,3.12
2017-12-17T10:24:26.687Z,3.31
2017-12-17T10:29:34.370Z,3.32
2017-12-17T10:40:21.545Z,3.42
2017-12-17T10:50:53.552Z,3.38
2017-12-17T11:01:26.247Z,3.50
2017-12-17T11:28:40.568Z,3.08
2017-12-17T11:33:42.361Z,2.49
2017-12-17T11:55:13.283Z,2.95
2017-12-17T12:00:20.266Z,3.08
2017-12-17T12:16:30.825Z,3.27
2017-12-17T12:21:31.652Z,3.20
2017-12-17T12:37:32.106Z,3.21
2017-12-17T12:48:00.733Z,3.19
2017-12-17T13:04:04.425Z,3.04
2017-12-17T13:20:01.512Z,3.18
2017-12-17T13:25:02.326Z,3.11
2017-12-17T13:30:13.382Z,2.95
2017-12-17T13:40:57.236Z,2.82
2017-12-17T14:02:41.291Z,2.51
2017-12-17T14:07:42.111Z,2.46
2017-12-17T14:18:14.077Z,2.45
2017-12-17T14:23:14.956Z,2.40
2017-12-17T14:28:15.872Z,2.25
2017-12-17T14:33:30.349Z,2.06
2017-12-17T14:44:11.741Z,1.89
2017-12-17T14:49:12.874Z,1.98
2017-12-17T14:54:13.801Z,2.03
2017-12-17T15:15:43.009Z,2.02
2017-12-17T15:26:17.987Z,1.99
2017-12-17T15:31:18.787Z,1.97
2017-12-17T15:36:19.606Z,1.97
2017-12-17T15:41:24.322Z,1.91
2017-12-17T15:52:06.839Z,1.95
2017-12-17T15:57:15.052Z,2.00
2017-12-17T16:02:33.002Z,2.04
2017-12-17T16:07:39.854Z,1.97
2017-12-17T16:13:00.733Z,1.77
2017-12-17T16:18:04.681Z,1.63
2017-12-17T16:28:57.355Z,1.61
2017-12-17T16:33:58.200Z,1.66
2017-12-17T16:38:59.040Z,1.70
2017-12-17T16:43:59.955Z,1.68
2017-12-17T17:00:04.158Z,1.66
2017-12-17T17:05:05.022Z,1.62
2017-12-17T17:15:55.325Z,1.69
2017-12-17T17:21:16.460Z,1.72
2017-12-17T17:26:17.356Z,1.66
2017-12-17T17:31:18.272Z,1.72
2017-12-17T17:36:19.147Z,1.73
2017-12-17T17:41:19.969Z,1.72
2017-12-17T17:46:20.866Z,1.68
2017-12-17T17:51:21.748Z,1.63
2017-12-17T17:56:22.616Z,1.62
2017-12-17T18:07:07.086Z,1.67
2017-12-17T18:12:11.723Z,1.63
2017-12-17T18:17:12.532Z,1.66
2017-12-17T18:22:13.345Z,1.69
2017-12-17T18:27:15.197Z,1.64
2017-12-17T18:32:16.006Z,1.60
2017-12-17T18:37:16.866Z,1.60
2017-12-17T18:42:19.759Z,1.59
2017-12-17T18:47:26.823Z,1.55
2017-12-17T18:52:27.700Z,1.54
2017-12-17T19:03:00.459Z,1.60
2017-12-17T19:08:03.502Z,1.64
2017-12-17T19:18:36.081Z,1.75
2017-12-17T19:23:42.060Z,1.78
2017-12-17T19:28:43.948Z,1.71
2017-12-17T19:33:58.304Z,1.73
2017-12-17T19:55:37.534Z,1.68
2017-12-17T20:00:38.418Z,1.69
2017-12-17T20:06:01.304Z,1.74
2017-12-17T20:11:02.144Z,1.75
2017-12-17T20:16:03.064Z,1.67
2017-12-17T20:21:19.060Z,1.62
2017-12-17T20:26:19.980Z,1.67
2017-12-17T20:31:20.872Z,1.67
2017-12-17T20:36:39.135Z,1.56
2017-12-17T20:41:40.034Z,1.67
2017-12-17T21:08:32.431Z,1.74
2017-12-17T21:13:33.272Z,1.72
2017-12-17T21:18:34.112Z,1.73
2017-12-17T21:23:35.228Z,1.82
2017-12-17T21:28:36.144Z,1.76
2017-12-17T21:33:37.052Z,1.78
2017-12-17T21:38:37.951Z,1.77
2017-12-17T21:48:46.239Z,1.80
2017-12-17T21:53:57.285Z,1.81
2017-12-17T21:58:58.141Z,1.87
2017-12-17T22:03:59.000Z,1.78
2017-12-17T22:09:03.644Z,1.81
2017-12-17T22:14:04.552Z,1.82
2017-12-17T22:19:05.473Z,1.91
2017-12-17T22:24:10.144Z,1.86
2017-12-17T22:35:00.630Z,1.81
2017-12-17T22:40:21.582Z,1.85
2017-12-17T22:50:50.184Z,1.85
2017-12-17T22:55:51.119Z,1.83
2017-12-17T23:00:54.001Z,1.89
2017-12-17T23:05:54.913Z,1.87
2017-12-17T23:10:55.794Z,1.82
2017-12-17T23:16:02.519Z,1.82
2017-12-17T23:21:03.374Z,1.83
2017-12-17T23:26:04.171Z,1.84
2017-12-17T23:31:05.014Z,1.82
2017-12-17T23:36:05.873Z,1.80
2017-12-17T23:41:06.714Z,1.76
2017-12-17T23:46:07.568Z,1.76
2017-12-17T23:51:08.406Z,1.66
2017-12-17T23:56:09.278Z,1.74
